createdAt,value
2023-04-29T16:58:35.815Z,13.90
2023-04-29T17:03:57.741Z,13.85
2023-04-29T17:09:19.533Z,13.86
2023-04-29T17:14:41.246Z,13.88
2023-04-29T17:20:03.813Z,13.85
2023-04-29T17:25:25.577Z,13.79
2023-04-29T17:30:47.256Z,13.79
2023-04-29T17:36:08.916Z,13.72
2023-04-29T17:41:30.667Z,13.64
2023-04-29T17:46:52.362Z,13.59
2023-04-29T17:52:15.132Z,13.61
2023-04-29T17:57:38.082Z,13.61
2023-04-29T18:02:59.992Z,13.67
2023-04-29T18:08:21.763Z,13.54
2023-04-29T18:13:43.551Z,13.54
2023-04-29T18:19:05.325Z,13.47
2023-04-29T18:24:29.073Z,13.46
2023-04-29T18:29:51.242Z,13.45
2023-04-29T18:35:13.330Z,13.38
2023-04-29T18:40:46.464Z,13.38
2023-04-29T18:46:08.306Z,13.39
2023-04-29T18:51:31.154Z,13.49
2023-04-29T18:56:52.854Z,13.42
2023-04-29T19:02:14.870Z,13.24
2023-04-29T19:07:36.767Z,13.13
2023-04-29T19:12:58.550Z,13.16
2023-04-29T19:18:22.594Z,13.08
2023-04-29T19:23:44.524Z,13.02
2023-04-29T19:29:07.199Z,13.02
2023-04-29T19:34:29.198Z,12.91
2023-04-29T19:39:51.134Z,12.96
2023-04-29T19:45:13.092Z,12.90
2023-04-29T19:50:34.783Z,12.98
2023-04-29T19:55:56.462Z,12.95
2023-04-29T20:01:18.265Z,12.89
2023-04-29T20:06:40.726Z,12.86
2023-04-29T20:12:03.090Z,12.83
2023-04-29T20:17:25.612Z,12.82
2023-04-29T20:22:48.008Z,12.84
2023-04-29T20:28:09.805Z,12.79
2023-04-29T20:33:31.629Z,12.80
2023-04-29T20:38:53.451Z,12.68
2023-04-29T20:44:15.145Z,12.64
2023-04-29T20:49:37.140Z,12.59
2023-04-29T20:54:59.043Z,12.63
2023-04-29T21:00:20.886Z,12.65
2023-04-29T21:05:42.623Z,12.66
2023-04-29T21:11:07.559Z,12.71
2023-04-29T21:16:29.376Z,12.63
2023-04-29T21:21:51.077Z,12.62
2023-04-29T21:27:12.838Z,12.69
2023-04-29T21:32:35.933Z,12.72
2023-04-29T21:37:57.770Z,12.72
2023-04-29T21:43:19.523Z,12.76
2023-04-29T21:48:41.409Z,12.72
2023-04-29T21:54:08.370Z,12.70
2023-04-29T21:59:34.195Z,12.70
2023-04-29T22:04:55.905Z,12.69
2023-04-29T22:10:17.585Z,12.72
2023-04-29T22:15:39.541Z,12.71
2023-04-29T22:21:01.218Z,12.72
2023-04-29T22:26:25.403Z,12.70
2023-04-29T22:31:47.240Z,12.71
2023-04-29T22:37:08.976Z,12.69
2023-04-29T22:42:30.659Z,12.72
2023-04-29T22:47:52.374Z,12.71
2023-04-29T22:53:14.085Z,12.68
2023-04-29T22:58:35.964Z,12.67
2023-04-29T23:03:57.816Z,12.65
2023-04-29T23:09:19.582Z,12.64
2023-04-29T23:14:41.270Z,12.63
2023-04-29T23:20:03.039Z,12.61
2023-04-29T23:25:24.718Z,12.57
2023-04-29T23:30:47.825Z,12.57
2023-04-29T23:36:09.499Z,12.54
2023-04-29T23:41:31.793Z,12.53
2023-04-29T23:46:53.598Z,12.53
2023-04-29T23:52:15.301Z,12.51
2023-04-29T23:57:37.003Z,12.50
